N987SK PAMR-PAMR

Flight info

Callsign N987SK
Flight time N/A
Altitude 3500
Route BGQ
Aircraft PA24/L-SDGRY/S

Departure

Time 2026-05-07 22:17
Airport Merrill Field (PAMR)

Arrival

Time N/A
Airport Merrill Field (PAMR)
Time Latitude Longitude Altitude Speed Heading
2026-05-07 22:09 61.21670 -149.84232 135 ft 0 kts
2026-05-07 22:14 61.21672 -149.84202 135 ft 6 kts 156°
2026-05-07 22:15 61.21647 -149.84314 135 ft 13 kts 261°
2026-05-07 22:15 61.21641 -149.84552 136 ft 20 kts 268°
2026-05-07 22:15 61.21642 -149.84886 137 ft 24 kts 271°
2026-05-07 22:15 61.21635 -149.85141 138 ft 12 kts 220°
2026-05-07 22:16 61.21552 -149.85165 138 ft 10 kts 204°
2026-05-07 22:16 61.21530 -149.85261 138 ft 10 kts 188°
2026-05-07 22:16 61.21287 -149.85258 134 ft 63 kts 179°
2026-05-07 22:16 61.20803 -149.85259 250 ft 76 kts 173°
2026-05-07 22:17 61.20317 -149.84843 467 ft 81 kts 132°
2026-05-07 22:17 61.19931 -149.83900 623 ft 92 kts 133°
2026-05-07 22:17 61.19502 -149.82826 802 ft 99 kts 133°
2026-05-07 22:17 61.19051 -149.81688 1003 ft 104 kts 134°
2026-05-07 22:18 61.18597 -149.80548 1267 ft 104 kts 134°
2026-05-07 22:18 61.17680 -149.78169 1750 ft 105 kts 134°
2026-05-07 22:18 61.17223 -149.76975 1954 ft 106 kts 134°
2026-05-07 22:19 61.16764 -149.75777 2178 ft 106 kts 134°
2026-05-07 22:19 61.16300 -149.74578 2391 ft 107 kts 134°
2026-05-07 22:19 61.15841 -149.73368 2607 ft 107 kts 133°
2026-05-07 22:19 61.15326 -149.72230 2759 ft 110 kts 143°
2026-05-07 22:20 61.14725 -149.71236 2898 ft 112 kts 149°
2026-05-07 22:20 61.14064 -149.70340 3008 ft 115 kts 151°
2026-05-07 22:20 61.13374 -149.69470 3100 ft 116 kts 152°
2026-05-07 22:20 61.12682 -149.68601 3244 ft 116 kts 152°
2026-05-07 22:21 61.11989 -149.67745 3374 ft 116 kts 152°
2026-05-07 22:21 61.11307 -149.66900 3507 ft 116 kts 152°
2026-05-07 22:21 61.10617 -149.66049 3643 ft 116 kts 152°
2026-05-07 22:21 61.09919 -149.65185 3766 ft 117 kts 152°
2026-05-07 22:22 61.09209 -149.64308 3851 ft 120 kts 152°
2026-05-07 22:22 61.08527 -149.63295 3954 ft 121 kts 140°
2026-05-07 22:22 61.07977 -149.61956 4055 ft 124 kts 130°
2026-05-07 22:22 61.07485 -149.60486 4168 ft 124 kts 129°
2026-05-07 22:23 61.07003 -149.59008 4286 ft 124 kts 129°
2026-05-07 22:23 61.06524 -149.57520 4387 ft 125 kts 129°
2026-05-07 22:23 61.06037 -149.56054 4482 ft 122 kts 129°
2026-05-07 22:23 61.05554 -149.54662 4576 ft 118 kts 129°
2026-05-07 22:24 61.05083 -149.53300 4687 ft 116 kts 129°
2026-05-07 22:24 61.04610 -149.51962 4800 ft 115 kts 130°
2026-05-07 22:24 61.04117 -149.50659 4878 ft 115 kts 131°
2026-05-07 22:24 61.03622 -149.49344 4988 ft 116 kts 131°
2026-05-07 22:25 61.03121 -149.48025 5068 ft 117 kts 131°
2026-05-07 22:25 61.02615 -149.46700 5122 ft 119 kts 131°
2026-05-07 22:25 61.02099 -149.45361 5182 ft 119 kts 131°
2026-05-07 22:25 61.01583 -149.44034 5256 ft 121 kts 131°
2026-05-07 22:26 61.01053 -149.42659 5369 ft 123 kts 131°
2026-05-07 22:26 61.00519 -149.41279 5450 ft 122 kts 131°
2026-05-07 22:26 61.00006 -149.39913 5514 ft 119 kts 131°
2026-05-07 22:26 60.99503 -149.38557 5597 ft 119 kts 131°
2026-05-07 22:27 60.99002 -149.37203 5686 ft 119 kts 131°
2026-05-07 22:27 60.98508 -149.35843 5793 ft 118 kts 131°
2026-05-07 22:27 60.98016 -149.34486 5837 ft 118 kts 131°
2026-05-07 22:27 60.97518 -149.33131 5873 ft 119 kts 131°
2026-05-07 22:28 60.97006 -149.31755 5891 ft 124 kts 131°
2026-05-07 22:28 60.96477 -149.30345 5916 ft 124 kts 131°
2026-05-07 22:28 60.95969 -149.28951 5958 ft 122 kts 131°
2026-05-07 22:28 60.95468 -149.27556 5962 ft 121 kts 131°
2026-05-07 22:29 60.94959 -149.26157 5986 ft 123 kts 130°
2026-05-07 22:29 60.94437 -149.24765 6090 ft 122 kts 130°
2026-05-07 22:29 60.93930 -149.23369 6181 ft 121 kts 130°
2026-05-07 22:29 60.93432 -149.21972 6237 ft 122 kts 130°
2026-05-07 22:30 60.92930 -149.20572 6277 ft 121 kts 130°
2026-05-07 22:30 60.92435 -149.19179 6318 ft 120 kts 130°
2026-05-07 22:30 60.91946 -149.17783 6355 ft 121 kts 130°
2026-05-07 22:30 60.91458 -149.16377 6390 ft 121 kts 130°
2026-05-07 22:31 60.90965 -149.14968 6429 ft 122 kts 130°
2026-05-07 22:31 60.90459 -149.13546 6482 ft 124 kts 130°
2026-05-07 22:31 60.89946 -149.12125 6519 ft 124 kts 130°
2026-05-07 22:31 60.89436 -149.10706 6543 ft 123 kts 130°
2026-05-07 22:32 60.88941 -149.09290 6552 ft 122 kts 130°
2026-05-07 22:32 60.88450 -149.07886 6546 ft 124 kts 130°
2026-05-07 22:32 60.87943 -149.06440 6552 ft 125 kts 130°
2026-05-07 22:32 60.87434 -149.04986 6555 ft 126 kts 130°
2026-05-07 22:33 60.86918 -149.03530 6540 ft 126 kts 130°
2026-05-07 22:33 60.86381 -149.02119 6546 ft 125 kts 130°
2026-05-07 22:33 60.85841 -149.00731 6547 ft 124 kts 130°
2026-05-07 22:33 60.85307 -148.99357 6548 ft 122 kts 130°
2026-05-07 22:34 60.84777 -148.97993 6549 ft 122 kts 130°
2026-05-07 22:34 60.84254 -148.96640 6549 ft 121 kts 130°
2026-05-07 22:34 60.83736 -148.95299 6550 ft 119 kts 130°
2026-05-07 22:34 60.83223 -148.93981 6551 ft 118 kts 129°
2026-05-07 22:35 60.82714 -148.92675 6566 ft 119 kts 129°
2026-05-07 22:35 60.82194 -148.91339 6567 ft 120 kts 129°
2026-05-07 22:35 60.81675 -148.89987 6568 ft 122 kts 129°
2026-05-07 22:35 60.81148 -148.88617 6569 ft 123 kts 129°
2026-05-07 22:36 60.80613 -148.87236 6568 ft 125 kts 129°
2026-05-07 22:36 60.80065 -148.85838 6568 ft 127 kts 129°
2026-05-07 22:36 60.79519 -148.84435 6569 ft 125 kts 129°
2026-05-07 22:36 60.78978 -148.83019 6568 ft 127 kts 129°
2026-05-07 22:37 60.78620 -148.82074 6566 ft 127 kts 129°
2026-05-07 22:37 60.78084 -148.80655 6561 ft 125 kts 129°
2026-05-07 22:37 60.77560 -148.79250 6561 ft 124 kts 129°
2026-05-07 22:37 60.77031 -148.77844 6563 ft 125 kts 129°
2026-05-07 22:38 60.76499 -148.76434 6563 ft 126 kts 129°
2026-05-07 22:38 60.75970 -148.75025 6561 ft 123 kts 129°
2026-05-07 22:38 60.75463 -148.73658 6559 ft 120 kts 129°
2026-05-07 22:38 60.74964 -148.72321 6572 ft 117 kts 129°
2026-05-07 22:39 60.74478 -148.70980 6571 ft 119 kts 129°
2026-05-07 22:39 60.73977 -148.69631 6572 ft 119 kts 129°
2026-05-07 22:39 60.73478 -148.68294 6570 ft 118 kts 129°
2026-05-07 22:39 60.72981 -148.66960 6574 ft 119 kts 129°
2026-05-07 22:40 60.72481 -148.65605 6575 ft 120 kts 129°
2026-05-07 22:40 60.71957 -148.64329 6578 ft 117 kts 135°
2026-05-07 22:40 60.71380 -148.63160 6575 ft 117 kts 136°
2026-05-07 22:40 60.70801 -148.62030 6572 ft 113 kts 137°
2026-05-07 22:41 60.70241 -148.60933 6570 ft 110 kts 136°
2026-05-07 22:41 60.69697 -148.59858 6567 ft 108 kts 136°
2026-05-07 22:41 60.69157 -148.58790 6565 ft 108 kts 136°
2026-05-07 22:41 60.68619 -148.57727 6563 ft 106 kts 136°
2026-05-07 22:42 60.68121 -148.56678 6559 ft 101 kts 136°
2026-05-07 22:42 60.67639 -148.55648 6612 ft 100 kts 136°
2026-05-07 22:42 60.67141 -148.54639 6598 ft 102 kts 136°
2026-05-07 22:42 60.66635 -148.53637 6581 ft 101 kts 136°
2026-05-07 22:43 60.66139 -148.52623 6576 ft 102 kts 136°
2026-05-07 22:43 60.65654 -148.51572 6565 ft 101 kts 136°
2026-05-07 22:43 60.65192 -148.50562 6569 ft 97 kts 136°
2026-05-07 22:43 60.64736 -148.49557 6575 ft 96 kts 136°
2026-05-07 22:44 60.64287 -148.48575 6574 ft 93 kts 136°
2026-05-07 22:44 60.63844 -148.47629 6575 ft 93 kts 136°
2026-05-07 22:44 60.63392 -148.46663 6576 ft 94 kts 137°
2026-05-07 22:44 60.62945 -148.45722 6574 ft 91 kts 136°
2026-05-07 22:45 60.62508 -148.44781 6578 ft 93 kts 136°
2026-05-07 22:45 60.62059 -148.43810 6581 ft 95 kts 137°
2026-05-07 22:45 60.61602 -148.42826 6582 ft 96 kts 136°
2026-05-07 22:45 60.61143 -148.41829 6579 ft 96 kts 136°
2026-05-07 22:46 60.60691 -148.40836 6570 ft 97 kts 136°
2026-05-07 22:46 60.60200 -148.39782 6478 ft 105 kts 136°
2026-05-07 22:46 60.59716 -148.38734 6528 ft 100 kts 136°
2026-05-07 22:46 60.59236 -148.37666 6428 ft 104 kts 136°
2026-05-07 22:47 60.58749 -148.36597 6410 ft 101 kts 136°
2026-05-07 22:47 60.58261 -148.35547 6378 ft 103 kts 136°
2026-05-07 22:47 60.57770 -148.34505 6376 ft 101 kts 136°
2026-05-07 22:47 60.57285 -148.33470 6298 ft 105 kts 136°
2026-05-07 22:48 60.56784 -148.32399 6257 ft 103 kts 136°
2026-05-07 22:48 60.56288 -148.31335 6160 ft 105 kts 136°
2026-05-07 22:48 60.55786 -148.30266 6066 ft 104 kts 136°
2026-05-07 22:48 60.55286 -148.29191 5984 ft 105 kts 136°
2026-05-07 22:49 60.54782 -148.28111 5884 ft 105 kts 136°
2026-05-07 22:49 60.54278 -148.27033 5780 ft 106 kts 136°
2026-05-07 22:49 60.53771 -148.25951 5682 ft 105 kts 136°
2026-05-07 22:49 60.53266 -148.24873 5584 ft 106 kts 136°
2026-05-07 22:50 60.52757 -148.23790 5477 ft 106 kts 136°
2026-05-07 22:50 60.52247 -148.22705 5370 ft 106 kts 135°
2026-05-07 22:50 60.51736 -148.21618 5270 ft 106 kts 135°
2026-05-07 22:50 60.51225 -148.20529 5157 ft 107 kts 135°
2026-05-07 22:51 60.50716 -148.19452 5054 ft 108 kts 135°
2026-05-07 22:51 60.50179 -148.18326 4925 ft 109 kts 135°
2026-05-07 22:51 60.49658 -148.17234 4802 ft 109 kts 135°
2026-05-07 22:51 60.49126 -148.16111 4645 ft 111 kts 135°
2026-05-07 22:52 60.48594 -148.14997 4502 ft 110 kts 135°
2026-05-07 22:52 60.48052 -148.13878 4343 ft 111 kts 135°
2026-05-07 22:52 60.47508 -148.12757 4172 ft 112 kts 135°
2026-05-07 22:52 60.46949 -148.11608 3977 ft 115 kts 135°
2026-05-07 22:53 60.46391 -148.10465 3851 ft 113 kts 135°
2026-05-07 22:53 60.45837 -148.09343 3687 ft 115 kts 135°
2026-05-07 22:53 60.45272 -148.08200 3515 ft 115 kts 135°
2026-05-07 22:53 60.44705 -148.07056 3330 ft 115 kts 135°
2026-05-07 22:54 60.44135 -148.05913 3143 ft 115 kts 135°
2026-05-07 22:54 60.43574 -148.04766 2973 ft 114 kts 135°
2026-05-07 22:54 60.43017 -148.03631 2828 ft 113 kts 139°
2026-05-07 22:54 60.42339 -148.02820 2650 ft 113 kts 155°
2026-05-07 22:55 60.41620 -148.02244 2543 ft 111 kts 158°
2026-05-07 22:55 60.40907 -148.01727 2498 ft 104 kts 159°
2026-05-07 22:55 60.40247 -148.01236 2504 ft 99 kts 159°
2026-05-07 22:55 60.39614 -148.00763 2505 ft 95 kts 158°
2026-05-07 22:56 60.39012 -148.00317 2518 ft 90 kts 158°
2026-05-07 22:56 60.38427 -147.99882 2517 ft 89 kts 158°
2026-05-07 22:56 60.37851 -147.99465 2520 ft 87 kts 158°
2026-05-07 22:56 60.37289 -147.99063 2518 ft 85 kts 158°
2026-05-07 22:57 60.36734 -147.98669 2519 ft 84 kts 159°
2026-05-07 22:57 60.36211 -147.98300 2561 ft 77 kts 158°
2026-05-07 22:57 60.35707 -147.97940 2545 ft 77 kts 158°
2026-05-07 22:57 60.35192 -147.97587 2532 ft 78 kts 159°
2026-05-07 22:58 60.34668 -147.97226 2505 ft 83 kts 159°
2026-05-07 22:58 60.34069 -147.96814 2373 ft 97 kts 159°
2026-05-07 22:58 60.33416 -147.96367 2317 ft 100 kts 164°
2026-05-07 22:58 60.32720 -147.96240 2277 ft 102 kts 177°
2026-05-07 22:59 60.32016 -147.96242 2253 ft 103 kts 178°
2026-05-07 22:59 60.31295 -147.96259 2227 ft 103 kts 178°
2026-05-07 22:59 60.30580 -147.96280 2215 ft 103 kts 178°
2026-05-07 22:59 60.29866 -147.96298 2206 ft 102 kts 178°
2026-05-07 23:00 60.29155 -147.96320 2203 ft 102 kts 180°
2026-05-07 23:00 60.28436 -147.96411 2181 ft 104 kts 182°
2026-05-07 23:00 60.27718 -147.96527 2187 ft 104 kts 182°
2026-05-07 23:00 60.27003 -147.96635 2180 ft 104 kts 182°
2026-05-07 23:01 60.26287 -147.96746 2194 ft 103 kts 182°
2026-05-07 23:01 60.25573 -147.96856 2200 ft 103 kts 182°
2026-05-07 23:01 60.24830 -147.96973 2141 ft 108 kts 182°
2026-05-07 23:01 60.24092 -147.97084 2180 ft 105 kts 181°
2026-05-07 23:02 60.23350 -147.97189 2157 ft 108 kts 181°
2026-05-07 23:02 60.22610 -147.97282 2190 ft 106 kts 181°
2026-05-07 23:02 60.21867 -147.97383 2195 ft 107 kts 181°
2026-05-07 23:02 60.21130 -147.97487 2208 ft 107 kts 181°
2026-05-07 23:03 60.20379 -147.97625 2189 ft 109 kts 183°
2026-05-07 23:03 60.19630 -147.97776 2201 ft 109 kts 183°
2026-05-07 23:03 60.18848 -147.97931 2112 ft 114 kts 184°
2026-05-07 23:03 60.18048 -147.98088 1994 ft 116 kts 183°
2026-05-07 23:04 60.17249 -147.98244 1931 ft 115 kts 183°
2026-05-07 23:04 60.16466 -147.98392 1854 ft 114 kts 183°
2026-05-07 23:04 60.15677 -147.98544 1790 ft 114 kts 183°
2026-05-07 23:04 60.14887 -147.98692 1722 ft 114 kts 183°
2026-05-07 23:05 60.14093 -147.98824 1668 ft 115 kts 183°
2026-05-07 23:05 60.13295 -147.98938 1614 ft 115 kts 183°
2026-05-07 23:05 60.12493 -147.99049 1573 ft 114 kts 183°
2026-05-07 23:05 60.11713 -147.99161 1505 ft 112 kts 183°
2026-05-07 23:06 60.10932 -147.99270 1411 ft 112 kts 182°
2026-05-07 23:06 60.10155 -147.99372 1347 ft 112 kts 182°
2026-05-07 23:06 60.09376 -147.99466 1270 ft 112 kts 182°
2026-05-07 23:06 60.08613 -147.99559 1207 ft 111 kts 183°
2026-05-07 23:07 60.07875 -148.00044 1116 ft 113 kts 205°
2026-05-07 23:07 60.07233 -148.00753 1023 ft 100 kts 209°
2026-05-07 23:07 60.06660 -148.01470 924 ft 95 kts 210°
2026-05-07 23:07 60.06096 -148.02120 848 ft 91 kts 194°
2026-05-07 23:08 60.05515 -148.01887 759 ft 88 kts 138°
2026-05-07 23:08 60.05341 -148.00811 710 ft 84 kts 81°
2026-05-07 23:08 60.05656 -147.99824 605 ft 86 kts 44°
2026-05-07 23:08 60.06186 -147.99297 470 ft 87 kts
2026-05-07 23:09 60.06756 -147.99391 324 ft 75 kts 357°
2026-05-07 23:09 60.07245 -147.99436 171 ft 67 kts 358°
2026-05-07 23:09 60.07666 -147.99462 113 ft 50 kts 358°
2026-05-07 23:09 60.07941 -147.99477 112 ft 27 kts 358°
2026-05-07 23:10 60.08008 -147.99576 113 ft 13 kts 270°
2026-05-07 23:10 60.07944 -147.99670 110 ft 11 kts 200°
2026-05-07 23:10 60.07918 -147.99713 108 ft 3 kts 324°
2026-05-07 23:10 60.07921 -147.99715 107 ft 0 kts 351°